METAR Data
IDs: Format: Raw Decoded Include TAF

Data at: 0157 UTC 29 May 2022

ESKN 290150Z 27004KT CAVOK 06/06 Q1005